Shavano Park, Texas
Current Conditions -  °F | °C
As of 4:51 PM on Wednesday 17 Dec 2014 (Local Time) from KSAT Reporting Station
Light Rain Light Rain  
Wind Chill: 54°   Ceiling: 1000
Heat Index: 54°   Visibility: 5mi
Dew Point: 50°   Wind: 6mph
Humidity: 86%   Direction: 40°NE
Pressure: 30.03"   Gusts: NA
Location:  29.5766°N, 98.5421°W
Report Text: KSAT 172251Z 04005KT 5SM -RA BR OVC010 12/10 A3003 RMK AO2 RAB29 SLP159 P0000 T01220100
Loading
Personal Weather Stations






























Interactive Weather Map New forecast layout! Learn more

10-Day Weather Forecast

Advertisements
Track Severe Weather on mobile